<?xml version="1.0" encoding="UTF-8" standalone="no" ?>
<gpx xmlns="http://www.topografix.com/GPX/1/1" xmlns:xsi="http://www.w3.org/2001/XMLSchema-instance" xsi:schemaLocation="http://www.topografix.com/GPX/1/1 http://www.topografix.com/GPX/1/1/gpx.xsd" version="1.1" creator="VisuGPX - https://www.visugpx.com">
  <metadata>
    <name>BEARN</name>
    <desc><![CDATA[Eysus Asasp Issor Escot]]></desc>
  </metadata>
  <trk>
    <name><![CDATA[Un 8 à L'Hôpital Saint-Blaise - 34022 - UtagawaVTT.com]]></name>
    <desc><![CDATA[L'Hôpital-Saint-Blaise 
Plus de détails sur le blog: http://vttaragonetplusaunord.blogspot.com/]]></desc>
    <trkseg>
      <trkpt lat="43.25102" lon="-0.76951">
        <ele>148.842</ele>
        <time>2021-05-20T12:04:59Z</time>
      </trkpt>
      <trkpt lat="43.25089" lon="-0.76959">
        <ele>149.622</ele>
        <time>2021-05-20T12:06:17Z</time>
      </trkpt>
      <trkpt lat="43.25139" lon="-0.76946">
        <ele>149.914</ele>
        <time>2021-05-20T12:08:00Z</time>
      </trkpt>
      <trkpt lat="43.25164" lon="-0.76853">
        <ele>149.908</ele>
        <time>2021-05-20T12:08:21Z</time>
      </trkpt>
      <trkpt lat="43.25135" lon="-0.76708">
        <ele>151.771</ele>
        <time>2021-05-20T12:08:47Z</time>
      </trkpt>
      <trkpt lat="43.25137" lon="-0.7649">
        <ele>151.887</ele>
        <time>2021-05-20T12:09:16Z</time>
      </trkpt>
      <trkpt lat="43.25132" lon="-0.76428">
        <ele>153.319</ele>
        <time>2021-05-20T12:09:25Z</time>
      </trkpt>
      <trkpt lat="43.25119" lon="-0.76413">
        <ele>153.178</ele>
        <time>2021-05-20T12:09:29Z</time>
      </trkpt>
      <trkpt lat="43.2503" lon="-0.76476">
        <ele>151.055</ele>
        <time>2021-05-20T12:09:51Z</time>
      </trkpt>
      <trkpt lat="43.25007" lon="-0.7652">
        <ele>159.913</ele>
        <time>2021-05-20T12:10:08Z</time>
      </trkpt>
      <trkpt lat="43.24984" lon="-0.765">
        <ele>170.273</ele>
        <time>2021-05-20T12:10:21Z</time>
      </trkpt>
      <trkpt lat="43.24972" lon="-0.76453">
        <ele>176.614</ele>
        <time>2021-05-20T12:10:38Z</time>
      </trkpt>
      <trkpt lat="43.24939" lon="-0.76437">
        <ele>178.695</ele>
        <time>2021-05-20T12:10:51Z</time>
      </trkpt>
      <trkpt lat="43.2492" lon="-0.76448">
        <ele>179.049</ele>
        <time>2021-05-20T12:11:00Z</time>
      </trkpt>
      <trkpt lat="43.24952" lon="-0.76662">
        <ele>194.223</ele>
        <time>2021-05-20T12:12:13Z</time>
      </trkpt>
      <trkpt lat="43.24931" lon="-0.76843">
        <ele>204.608</ele>
        <time>2021-05-20T12:13:10Z</time>
      </trkpt>
      <trkpt lat="43.24893" lon="-0.76975">
        <ele>206.866</ele>
        <time>2021-05-20T12:13:52Z</time>
      </trkpt>
      <trkpt lat="43.24804" lon="-0.76991">
        <ele>196.972</ele>
        <time>2021-05-20T12:14:03Z</time>
      </trkpt>
      <trkpt lat="43.2474" lon="-0.76957">
        <ele>190.394</ele>
        <time>2021-05-20T12:14:10Z</time>
      </trkpt>
      <trkpt lat="43.24672" lon="-0.76955">
        <ele>183.163</ele>
        <time>2021-05-20T12:14:17Z</time>
      </trkpt>
      <trkpt lat="43.24548" lon="-0.77091">
        <ele>201.05</ele>
        <time>2021-05-20T12:15:01Z</time>
      </trkpt>
      <trkpt lat="43.24442" lon="-0.77004">
        <ele>224.398</ele>
        <time>2021-05-20T12:15:56Z</time>
      </trkpt>
      <trkpt lat="43.24217" lon="-0.77103">
        <ele>235.288</ele>
        <time>2021-05-20T12:17:34Z</time>
      </trkpt>
      <trkpt lat="43.24104" lon="-0.77097">
        <ele>240.439</ele>
        <time>2021-05-20T12:18:49Z</time>
      </trkpt>
      <trkpt lat="43.24083" lon="-0.77195">
        <ele>244.814</ele>
        <time>2021-05-20T12:19:46Z</time>
      </trkpt>
      <trkpt lat="43.24115" lon="-0.77546">
        <ele>249.754</ele>
        <time>2021-05-20T12:20:49Z</time>
      </trkpt>
      <trkpt lat="43.24073" lon="-0.77656">
        <ele>244.809</ele>
        <time>2021-05-20T12:21:01Z</time>
      </trkpt>
      <trkpt lat="43.24015" lon="-0.77763">
        <ele>241.608</ele>
        <time>2021-05-20T12:21:19Z</time>
      </trkpt>
      <trkpt lat="43.23831" lon="-0.78007">
        <ele>260.638</ele>
        <time>2021-05-20T12:22:30Z</time>
      </trkpt>
      <trkpt lat="43.23799" lon="-0.78223">
        <ele>269.584</ele>
        <time>2021-05-20T12:25:10Z</time>
      </trkpt>
      <trkpt lat="43.23695" lon="-0.78378">
        <ele>253.276</ele>
        <time>2021-05-20T12:25:33Z</time>
      </trkpt>
      <trkpt lat="43.2368" lon="-0.78387">
        <ele>252.375</ele>
        <time>2021-05-20T12:25:36Z</time>
      </trkpt>
      <trkpt lat="43.23659" lon="-0.78374">
        <ele>253.162</ele>
        <time>2021-05-20T12:25:44Z</time>
      </trkpt>
      <trkpt lat="43.2356" lon="-0.78295">
        <ele>250.56</ele>
        <time>2021-05-20T12:26:14Z</time>
      </trkpt>
      <trkpt lat="43.23633" lon="-0.78359">
        <ele>260.05</ele>
        <time>2021-05-20T12:26:49Z</time>
      </trkpt>
      <trkpt lat="43.23688" lon="-0.78387">
        <ele>260.991</ele>
        <time>2021-05-20T12:27:15Z</time>
      </trkpt>
      <trkpt lat="43.23689" lon="-0.78426">
        <ele>254.532</ele>
        <time>2021-05-20T12:29:03Z</time>
      </trkpt>
      <trkpt lat="43.23668" lon="-0.78478">
        <ele>246.092</ele>
        <time>2021-05-20T12:29:30Z</time>
      </trkpt>
      <trkpt lat="43.23526" lon="-0.78632">
        <ele>237.511</ele>
        <time>2021-05-20T12:31:24Z</time>
      </trkpt>
      <trkpt lat="43.23508" lon="-0.78668">
        <ele>236.108</ele>
        <time>2021-05-20T12:31:35Z</time>
      </trkpt>
      <trkpt lat="43.2348" lon="-0.78683">
        <ele>237.71</ele>
        <time>2021-05-20T12:32:42Z</time>
      </trkpt>
      <trkpt lat="43.23461" lon="-0.78686">
        <ele>238.226</ele>
        <time>2021-05-20T12:32:56Z</time>
      </trkpt>
      <trkpt lat="43.23309" lon="-0.78585">
        <ele>266.468</ele>
        <time>2021-05-20T12:35:35Z</time>
      </trkpt>
      <trkpt lat="43.23266" lon="-0.78598">
        <ele>266.357</ele>
        <time>2021-05-20T12:39:13Z</time>
      </trkpt>
      <trkpt lat="43.23227" lon="-0.78633">
        <ele>265.514</ele>
        <time>2021-05-20T12:39:29Z</time>
      </trkpt>
      <trkpt lat="43.23187" lon="-0.78789">
        <ele>285.832</ele>
        <time>2021-05-20T12:40:24Z</time>
      </trkpt>
      <trkpt lat="43.23108" lon="-0.79002">
        <ele>305.762</ele>
        <time>2021-05-20T12:42:35Z</time>
      </trkpt>
      <trkpt lat="43.23085" lon="-0.79164">
        <ele>318.963</ele>
        <time>2021-05-20T12:44:03Z</time>
      </trkpt>
      <trkpt lat="43.22984" lon="-0.79263">
        <ele>321.637</ele>
        <time>2021-05-20T12:45:02Z</time>
      </trkpt>
      <trkpt lat="43.22831" lon="-0.79342">
        <ele>331.349</ele>
        <time>2021-05-20T12:47:56Z</time>
      </trkpt>
      <trkpt lat="43.22795" lon="-0.79396">
        <ele>329.913</ele>
        <time>2021-05-20T12:48:08Z</time>
      </trkpt>
      <trkpt lat="43.22752" lon="-0.79535">
        <ele>340.808</ele>
        <time>2021-05-20T12:48:51Z</time>
      </trkpt>
      <trkpt lat="43.2267" lon="-0.79601">
        <ele>345.47</ele>
        <time>2021-05-20T12:49:30Z</time>
      </trkpt>
      <trkpt lat="43.22569" lon="-0.79763">
        <ele>334.616</ele>
        <time>2021-05-20T12:52:45Z</time>
      </trkpt>
      <trkpt lat="43.22439" lon="-0.798">
        <ele>321.458</ele>
        <time>2021-05-20T12:53:03Z</time>
      </trkpt>
      <trkpt lat="43.22279" lon="-0.79777">
        <ele>317.067</ele>
        <time>2021-05-20T12:53:26Z</time>
      </trkpt>
      <trkpt lat="43.2218" lon="-0.79727">
        <ele>311.734</ele>
        <time>2021-05-20T12:53:46Z</time>
      </trkpt>
      <trkpt lat="43.22154" lon="-0.79752">
        <ele>308.072</ele>
        <time>2021-05-20T12:54:03Z</time>
      </trkpt>
      <trkpt lat="43.2214" lon="-0.79789">
        <ele>308.632</ele>
        <time>2021-05-20T12:54:22Z</time>
      </trkpt>
      <trkpt lat="43.22168" lon="-0.80178">
        <ele>362.723</ele>
        <time>2021-05-20T12:59:08Z</time>
      </trkpt>
      <trkpt lat="43.22156" lon="-0.80173">
        <ele>355.126</ele>
        <time>2021-05-20T13:00:51Z</time>
      </trkpt>
      <trkpt lat="43.22186" lon="-0.803">
        <ele>353.447</ele>
        <time>2021-05-20T13:01:36Z</time>
      </trkpt>
      <trkpt lat="43.22165" lon="-0.80376">
        <ele>341.111</ele>
        <time>2021-05-20T13:01:59Z</time>
      </trkpt>
      <trkpt lat="43.22098" lon="-0.80463">
        <ele>335.408</ele>
        <time>2021-05-20T13:03:34Z</time>
      </trkpt>
      <trkpt lat="43.221" lon="-0.80493">
        <ele>338.919</ele>
        <time>2021-05-20T13:04:02Z</time>
      </trkpt>
      <trkpt lat="43.22258" lon="-0.80516">
        <ele>337.165</ele>
        <time>2021-05-20T13:06:18Z</time>
      </trkpt>
      <trkpt lat="43.22324" lon="-0.80586">
        <ele>336.817</ele>
        <time>2021-05-20T13:06:58Z</time>
      </trkpt>
      <trkpt lat="43.22381" lon="-0.80701">
        <ele>341.436</ele>
        <time>2021-05-20T13:07:59Z</time>
      </trkpt>
      <trkpt lat="43.2239" lon="-0.80698">
        <ele>337.183</ele>
        <time>2021-05-20T13:08:19Z</time>
      </trkpt>
      <trkpt lat="43.22384" lon="-0.80734">
        <ele>324.771</ele>
        <time>2021-05-20T13:10:03Z</time>
      </trkpt>
      <trkpt lat="43.22453" lon="-0.80809">
        <ele>322.891</ele>
        <time>2021-05-20T13:10:51Z</time>
      </trkpt>
      <trkpt lat="43.22478" lon="-0.80878">
        <ele>324.422</ele>
        <time>2021-05-20T13:11:43Z</time>
      </trkpt>
      <trkpt lat="43.22472" lon="-0.80914">
        <ele>327.847</ele>
        <time>2021-05-20T13:12:35Z</time>
      </trkpt>
      <trkpt lat="43.22512" lon="-0.80928">
        <ele>329.329</ele>
        <time>2021-05-20T13:14:39Z</time>
      </trkpt>
      <trkpt lat="43.22543" lon="-0.80976">
        <ele>323.321</ele>
        <time>2021-05-20T13:17:08Z</time>
      </trkpt>
      <trkpt lat="43.22596" lon="-0.81131">
        <ele>329.608</ele>
        <time>2021-05-20T13:24:49Z</time>
      </trkpt>
      <trkpt lat="43.22749" lon="-0.81107">
        <ele>325.361</ele>
        <time>2021-05-20T13:27:41Z</time>
      </trkpt>
      <trkpt lat="43.22866" lon="-0.81047">
        <ele>325.647</ele>
        <time>2021-05-20T13:28:56Z</time>
      </trkpt>
      <trkpt lat="43.22923" lon="-0.81055">
        <ele>316.299</ele>
        <time>2021-05-20T13:29:54Z</time>
      </trkpt>
      <trkpt lat="43.23033" lon="-0.80871">
        <ele>295.468</ele>
        <time>2021-05-20T13:31:21Z</time>
      </trkpt>
      <trkpt lat="43.23226" lon="-0.80653">
        <ele>264.685</ele>
        <time>2021-05-20T13:34:08Z</time>
      </trkpt>
      <trkpt lat="43.23368" lon="-0.8043">
        <ele>238.543</ele>
        <time>2021-05-20T13:35:14Z</time>
      </trkpt>
      <trkpt lat="43.23416" lon="-0.80424">
        <ele>233.573</ele>
        <time>2021-05-20T13:35:34Z</time>
      </trkpt>
      <trkpt lat="43.23411" lon="-0.80399">
        <ele>226.474</ele>
        <time>2021-05-20T13:37:17Z</time>
      </trkpt>
      <trkpt lat="43.23455" lon="-0.80466">
        <ele>234.195</ele>
        <time>2021-05-20T13:38:36Z</time>
      </trkpt>
      <trkpt lat="43.23455" lon="-0.80539">
        <ele>233.249</ele>
        <time>2021-05-20T13:38:48Z</time>
      </trkpt>
      <trkpt lat="43.23475" lon="-0.80547">
        <ele>233.423</ele>
        <time>2021-05-20T13:38:52Z</time>
      </trkpt>
      <trkpt lat="43.23548" lon="-0.80486">
        <ele>235.508</ele>
        <time>2021-05-20T13:39:08Z</time>
      </trkpt>
      <trkpt lat="43.23611" lon="-0.80461">
        <ele>235.886</ele>
        <time>2021-05-20T13:39:24Z</time>
      </trkpt>
      <trkpt lat="43.23662" lon="-0.80467">
        <ele>232.862</ele>
        <time>2021-05-20T13:39:38Z</time>
      </trkpt>
      <trkpt lat="43.23759" lon="-0.8053">
        <ele>223.844</ele>
        <time>2021-05-20T13:39:56Z</time>
      </trkpt>
      <trkpt lat="43.23903" lon="-0.80559">
        <ele>207.783</ele>
        <time>2021-05-20T13:40:17Z</time>
      </trkpt>
      <trkpt lat="43.23963" lon="-0.80541">
        <ele>225.04</ele>
        <time>2021-05-20T13:43:34Z</time>
      </trkpt>
      <trkpt lat="43.23969" lon="-0.80529">
        <ele>221.618</ele>
        <time>2021-05-20T13:43:48Z</time>
      </trkpt>
      <trkpt lat="43.23957" lon="-0.80523">
        <ele>219.528</ele>
        <time>2021-05-20T13:44:10Z</time>
      </trkpt>
      <trkpt lat="43.24005" lon="-0.80387">
        <ele>213.979</ele>
        <time>2021-05-20T13:44:30Z</time>
      </trkpt>
      <trkpt lat="43.24007" lon="-0.80262">
        <ele>199.429</ele>
        <time>2021-05-20T13:45:24Z</time>
      </trkpt>
      <trkpt lat="43.24043" lon="-0.80129">
        <ele>209.3</ele>
        <time>2021-05-20T13:45:56Z</time>
      </trkpt>
      <trkpt lat="43.24072" lon="-0.79909">
        <ele>202.82</ele>
        <time>2021-05-20T13:47:14Z</time>
      </trkpt>
      <trkpt lat="43.24123" lon="-0.79761">
        <ele>197.408</ele>
        <time>2021-05-20T13:48:01Z</time>
      </trkpt>
      <trkpt lat="43.24223" lon="-0.79585">
        <ele>189.129</ele>
        <time>2021-05-20T13:49:39Z</time>
      </trkpt>
      <trkpt lat="43.2423" lon="-0.7946">
        <ele>174.095</ele>
        <time>2021-05-20T13:50:08Z</time>
      </trkpt>
      <trkpt lat="43.24352" lon="-0.79333">
        <ele>172.127</ele>
        <time>2021-05-20T13:50:47Z</time>
      </trkpt>
      <trkpt lat="43.2441" lon="-0.7934">
        <ele>170.396</ele>
        <time>2021-05-20T13:51:01Z</time>
      </trkpt>
      <trkpt lat="43.2444" lon="-0.79378">
        <ele>167.293</ele>
        <time>2021-05-20T13:51:46Z</time>
      </trkpt>
      <trkpt lat="43.24477" lon="-0.79351">
        <ele>167.081</ele>
        <time>2021-05-20T13:51:57Z</time>
      </trkpt>
      <trkpt lat="43.24671" lon="-0.7929">
        <ele>165.081</ele>
        <time>2021-05-20T13:52:30Z</time>
      </trkpt>
      <trkpt lat="43.24762" lon="-0.79207">
        <ele>164.672</ele>
        <time>2021-05-20T13:52:47Z</time>
      </trkpt>
      <trkpt lat="43.24789" lon="-0.79145">
        <ele>161.356</ele>
        <time>2021-05-20T13:52:55Z</time>
      </trkpt>
      <trkpt lat="43.248" lon="-0.79066">
        <ele>167.659</ele>
        <time>2021-05-20T13:53:05Z</time>
      </trkpt>
      <trkpt lat="43.24764" lon="-0.78682">
        <ele>184.314</ele>
        <time>2021-05-20T13:53:53Z</time>
      </trkpt>
      <trkpt lat="43.24812" lon="-0.78309">
        <ele>160.608</ele>
        <time>2021-05-20T13:54:38Z</time>
      </trkpt>
      <trkpt lat="43.24864" lon="-0.78247">
        <ele>159.592</ele>
        <time>2021-05-20T13:54:50Z</time>
      </trkpt>
      <trkpt lat="43.25128" lon="-0.78123">
        <ele>157.678</ele>
        <time>2021-05-20T13:55:38Z</time>
      </trkpt>
      <trkpt lat="43.25175" lon="-0.78082">
        <ele>157.54</ele>
        <time>2021-05-20T13:55:48Z</time>
      </trkpt>
      <trkpt lat="43.25238" lon="-0.7792">
        <ele>154.919</ele>
        <time>2021-05-20T13:56:10Z</time>
      </trkpt>
      <trkpt lat="43.25296" lon="-0.77828">
        <ele>157.126</ele>
        <time>2021-05-20T13:56:26Z</time>
      </trkpt>
      <trkpt lat="43.25435" lon="-0.77409">
        <ele>156.454</ele>
        <time>2021-05-20T13:57:23Z</time>
      </trkpt>
      <trkpt lat="43.25434" lon="-0.77336">
        <ele>156.334</ele>
        <time>2021-05-20T13:57:32Z</time>
      </trkpt>
      <trkpt lat="43.25406" lon="-0.77235">
        <ele>158.665</ele>
        <time>2021-05-20T13:57:46Z</time>
      </trkpt>
      <trkpt lat="43.25251" lon="-0.7712">
        <ele>157.486</ele>
        <time>2021-05-20T13:58:17Z</time>
      </trkpt>
      <trkpt lat="43.25187" lon="-0.77001">
        <ele>154.06</ele>
        <time>2021-05-20T13:58:43Z</time>
      </trkpt>
      <trkpt lat="43.25166" lon="-0.76821">
        <ele>153.126</ele>
        <time>2021-05-20T14:00:46Z</time>
      </trkpt>
      <trkpt lat="43.252" lon="-0.76594">
        <ele>162.508</ele>
        <time>2021-05-20T14:01:29Z</time>
      </trkpt>
      <trkpt lat="43.2522" lon="-0.76566">
        <ele>164.115</ele>
        <time>2021-05-20T14:01:37Z</time>
      </trkpt>
      <trkpt lat="43.25385" lon="-0.76582">
        <ele>172.911</ele>
        <time>2021-05-20T14:02:19Z</time>
      </trkpt>
      <trkpt lat="43.25567" lon="-0.76556">
        <ele>179.743</ele>
        <time>2021-05-20T14:02:58Z</time>
      </trkpt>
      <trkpt lat="43.25566" lon="-0.76528">
        <ele>178.692</ele>
        <time>2021-05-20T14:03:03Z</time>
      </trkpt>
      <trkpt lat="43.255" lon="-0.76458">
        <ele>183.349</ele>
        <time>2021-05-20T14:03:27Z</time>
      </trkpt>
      <trkpt lat="43.25503" lon="-0.76432">
        <ele>182.247</ele>
        <time>2021-05-20T14:03:36Z</time>
      </trkpt>
      <trkpt lat="43.25543" lon="-0.76407">
        <ele>185.467</ele>
        <time>2021-05-20T14:03:49Z</time>
      </trkpt>
      <trkpt lat="43.25643" lon="-0.76404">
        <ele>187.078</ele>
        <time>2021-05-20T14:04:15Z</time>
      </trkpt>
      <trkpt lat="43.25717" lon="-0.76372">
        <ele>189.837</ele>
        <time>2021-05-20T14:04:35Z</time>
      </trkpt>
      <trkpt lat="43.2584" lon="-0.76366">
        <ele>202.349</ele>
        <time>2021-05-20T14:05:16Z</time>
      </trkpt>
      <trkpt lat="43.25872" lon="-0.76458">
        <ele>211.613</ele>
        <time>2021-05-20T14:05:50Z</time>
      </trkpt>
      <trkpt lat="43.25922" lon="-0.76505">
        <ele>214.908</ele>
        <time>2021-05-20T14:06:18Z</time>
      </trkpt>
      <trkpt lat="43.25998" lon="-0.76475">
        <ele>220.02</ele>
        <time>2021-05-20T14:06:53Z</time>
      </trkpt>
      <trkpt lat="43.26099" lon="-0.76477">
        <ele>236.086</ele>
        <time>2021-05-20T14:07:38Z</time>
      </trkpt>
      <trkpt lat="43.26142" lon="-0.76444">
        <ele>231.018</ele>
        <time>2021-05-20T14:08:45Z</time>
      </trkpt>
      <trkpt lat="43.26288" lon="-0.76429">
        <ele>226.147</ele>
        <time>2021-05-20T14:09:20Z</time>
      </trkpt>
      <trkpt lat="43.26369" lon="-0.7644">
        <ele>221.294</ele>
        <time>2021-05-20T14:09:29Z</time>
      </trkpt>
      <trkpt lat="43.26521" lon="-0.7637">
        <ele>213.822</ele>
        <time>2021-05-20T14:09:53Z</time>
      </trkpt>
      <trkpt lat="43.26693" lon="-0.76319">
        <ele>201.562</ele>
        <time>2021-05-20T14:10:09Z</time>
      </trkpt>
      <trkpt lat="43.26783" lon="-0.76329">
        <ele>197.173</ele>
        <time>2021-05-20T14:10:17Z</time>
      </trkpt>
      <trkpt lat="43.26873" lon="-0.76425">
        <ele>186.342</ele>
        <time>2021-05-20T14:10:26Z</time>
      </trkpt>
      <trkpt lat="43.26937" lon="-0.76437">
        <ele>178.922</ele>
        <time>2021-05-20T14:10:32Z</time>
      </trkpt>
      <trkpt lat="43.27021" lon="-0.76368">
        <ele>171.314</ele>
        <time>2021-05-20T14:10:40Z</time>
      </trkpt>
      <trkpt lat="43.27126" lon="-0.76246">
        <ele>157.708</ele>
        <time>2021-05-20T14:10:50Z</time>
      </trkpt>
      <trkpt lat="43.27187" lon="-0.76112">
        <ele>148.161</ele>
        <time>2021-05-20T14:11:00Z</time>
      </trkpt>
      <trkpt lat="43.27266" lon="-0.76093">
        <ele>144.297</ele>
        <time>2021-05-20T14:11:09Z</time>
      </trkpt>
      <trkpt lat="43.27305" lon="-0.76062">
        <ele>149.519</ele>
        <time>2021-05-20T14:11:24Z</time>
      </trkpt>
      <trkpt lat="43.2729" lon="-0.76113">
        <ele>152.178</ele>
        <time>2021-05-20T14:11:38Z</time>
      </trkpt>
      <trkpt lat="43.27332" lon="-0.76171">
        <ele>157.395</ele>
        <time>2021-05-20T14:11:54Z</time>
      </trkpt>
      <trkpt lat="43.27328" lon="-0.76315">
        <ele>164.733</ele>
        <time>2021-05-20T14:12:22Z</time>
      </trkpt>
      <trkpt lat="43.27353" lon="-0.76381">
        <ele>171.363</ele>
        <time>2021-05-20T14:12:40Z</time>
      </trkpt>
      <trkpt lat="43.27356" lon="-0.76439">
        <ele>173.424</ele>
        <time>2021-05-20T14:12:53Z</time>
      </trkpt>
      <trkpt lat="43.27347" lon="-0.76726">
        <ele>177.282</ele>
        <time>2021-05-20T14:13:49Z</time>
      </trkpt>
      <trkpt lat="43.27313" lon="-0.77075">
        <ele>182.343</ele>
        <time>2021-05-20T14:14:49Z</time>
      </trkpt>
      <trkpt lat="43.27458" lon="-0.77427">
        <ele>208.317</ele>
        <time>2021-05-20T14:16:36Z</time>
      </trkpt>
      <trkpt lat="43.27454" lon="-0.77533">
        <ele>215.008</ele>
        <time>2021-05-20T14:17:05Z</time>
      </trkpt>
      <trkpt lat="43.274" lon="-0.77621">
        <ele>219.065</ele>
        <time>2021-05-20T14:18:17Z</time>
      </trkpt>
      <trkpt lat="43.27371" lon="-0.77808">
        <ele>230.041</ele>
        <time>2021-05-20T14:19:08Z</time>
      </trkpt>
      <trkpt lat="43.27383" lon="-0.78104">
        <ele>233.683</ele>
        <time>2021-05-20T14:20:16Z</time>
      </trkpt>
      <trkpt lat="43.27397" lon="-0.78151">
        <ele>239.932</ele>
        <time>2021-05-20T14:22:43Z</time>
      </trkpt>
      <trkpt lat="43.2742" lon="-0.78185">
        <ele>235.179</ele>
        <time>2021-05-20T14:22:55Z</time>
      </trkpt>
      <trkpt lat="43.27534" lon="-0.78178">
        <ele>240.367</ele>
        <time>2021-05-20T14:23:43Z</time>
      </trkpt>
      <trkpt lat="43.27558" lon="-0.78197">
        <ele>240.717</ele>
        <time>2021-05-20T14:23:55Z</time>
      </trkpt>
      <trkpt lat="43.27675" lon="-0.7837">
        <ele>224.048</ele>
        <time>2021-05-20T14:26:02Z</time>
      </trkpt>
      <trkpt lat="43.27859" lon="-0.78577">
        <ele>210.416</ele>
        <time>2021-05-20T14:27:12Z</time>
      </trkpt>
      <trkpt lat="43.27893" lon="-0.78592">
        <ele>212.876</ele>
        <time>2021-05-20T14:27:21Z</time>
      </trkpt>
      <trkpt lat="43.27924" lon="-0.78534">
        <ele>219.513</ele>
        <time>2021-05-20T14:27:52Z</time>
      </trkpt>
      <trkpt lat="43.27934" lon="-0.78444">
        <ele>215.108</ele>
        <time>2021-05-20T14:28:11Z</time>
      </trkpt>
      <trkpt lat="43.28013" lon="-0.78429">
        <ele>205.828</ele>
        <time>2021-05-20T14:29:14Z</time>
      </trkpt>
      <trkpt lat="43.27991" lon="-0.78297">
        <ele>197.054</ele>
        <time>2021-05-20T14:31:37Z</time>
      </trkpt>
      <trkpt lat="43.28028" lon="-0.78278">
        <ele>202.916</ele>
        <time>2021-05-20T14:31:52Z</time>
      </trkpt>
      <trkpt lat="43.28095" lon="-0.78125">
        <ele>193.885</ele>
        <time>2021-05-20T14:32:24Z</time>
      </trkpt>
      <trkpt lat="43.28164" lon="-0.78076">
        <ele>194.952</ele>
        <time>2021-05-20T14:32:51Z</time>
      </trkpt>
      <trkpt lat="43.28229" lon="-0.77924">
        <ele>174.08</ele>
        <time>2021-05-20T14:33:23Z</time>
      </trkpt>
      <trkpt lat="43.28236" lon="-0.77886">
        <ele>170.76</ele>
        <time>2021-05-20T14:33:28Z</time>
      </trkpt>
      <trkpt lat="43.282" lon="-0.77668">
        <ele>171.641</ele>
        <time>2021-05-20T14:35:17Z</time>
      </trkpt>
      <trkpt lat="43.28252" lon="-0.7749">
        <ele>185.819</ele>
        <time>2021-05-20T14:38:03Z</time>
      </trkpt>
      <trkpt lat="43.28224" lon="-0.77446">
        <ele>187.609</ele>
        <time>2021-05-20T14:38:20Z</time>
      </trkpt>
      <trkpt lat="43.28187" lon="-0.7742">
        <ele>188.119</ele>
        <time>2021-05-20T14:38:34Z</time>
      </trkpt>
      <trkpt lat="43.28148" lon="-0.77309">
        <ele>180.308</ele>
        <time>2021-05-20T14:38:55Z</time>
      </trkpt>
      <trkpt lat="43.2817" lon="-0.77148">
        <ele>170.148</ele>
        <time>2021-05-20T14:39:20Z</time>
      </trkpt>
      <trkpt lat="43.28147" lon="-0.77068">
        <ele>159.034</ele>
        <time>2021-05-20T14:39:29Z</time>
      </trkpt>
      <trkpt lat="43.28152" lon="-0.77023">
        <ele>153.446</ele>
        <time>2021-05-20T14:39:34Z</time>
      </trkpt>
      <trkpt lat="43.28231" lon="-0.76908">
        <ele>132.185</ele>
        <time>2021-05-20T14:39:49Z</time>
      </trkpt>
      <trkpt lat="43.28321" lon="-0.76849">
        <ele>132.222</ele>
        <time>2021-05-20T14:40:09Z</time>
      </trkpt>
      <trkpt lat="43.2834" lon="-0.76771">
        <ele>139.12</ele>
        <time>2021-05-20T14:40:20Z</time>
      </trkpt>
      <trkpt lat="43.28337" lon="-0.76686">
        <ele>144.62</ele>
        <time>2021-05-20T14:40:33Z</time>
      </trkpt>
      <trkpt lat="43.28491" lon="-0.76384">
        <ele>151.691</ele>
        <time>2021-05-20T14:41:33Z</time>
      </trkpt>
      <trkpt lat="43.28534" lon="-0.76255">
        <ele>165.771</ele>
        <time>2021-05-20T14:42:09Z</time>
      </trkpt>
      <trkpt lat="43.28667" lon="-0.76163">
        <ele>193.641</ele>
        <time>2021-05-20T14:43:08Z</time>
      </trkpt>
      <trkpt lat="43.28693" lon="-0.76128">
        <ele>178.715</ele>
        <time>2021-05-20T14:44:40Z</time>
      </trkpt>
      <trkpt lat="43.28511" lon="-0.75959">
        <ele>176.308</ele>
        <time>2021-05-20T14:45:29Z</time>
      </trkpt>
      <trkpt lat="43.28382" lon="-0.75795">
        <ele>178.144</ele>
        <time>2021-05-20T14:45:58Z</time>
      </trkpt>
      <trkpt lat="43.28197" lon="-0.75455">
        <ele>181.42</ele>
        <time>2021-05-20T14:46:57Z</time>
      </trkpt>
      <trkpt lat="43.28077" lon="-0.75269">
        <ele>179.442</ele>
        <time>2021-05-20T14:47:29Z</time>
      </trkpt>
      <trkpt lat="43.2807" lon="-0.7523">
        <ele>179.971</ele>
        <time>2021-05-20T14:47:42Z</time>
      </trkpt>
      <trkpt lat="43.27923" lon="-0.75165">
        <ele>178.738</ele>
        <time>2021-05-20T14:48:41Z</time>
      </trkpt>
      <trkpt lat="43.27781" lon="-0.75185">
        <ele>178.746</ele>
        <time>2021-05-20T14:49:11Z</time>
      </trkpt>
      <trkpt lat="43.27677" lon="-0.75098">
        <ele>180.436</ele>
        <time>2021-05-20T14:49:42Z</time>
      </trkpt>
      <trkpt lat="43.27527" lon="-0.74884">
        <ele>182.927</ele>
        <time>2021-05-20T14:50:44Z</time>
      </trkpt>
      <trkpt lat="43.27503" lon="-0.74821">
        <ele>182.474</ele>
        <time>2021-05-20T14:51:02Z</time>
      </trkpt>
      <trkpt lat="43.27725" lon="-0.74876">
        <ele>183.856</ele>
        <time>2021-05-20T14:51:52Z</time>
      </trkpt>
      <trkpt lat="43.2784" lon="-0.74768">
        <ele>182.221</ele>
        <time>2021-05-20T14:52:25Z</time>
      </trkpt>
      <trkpt lat="43.27806" lon="-0.74696">
        <ele>182.108</ele>
        <time>2021-05-20T14:52:41Z</time>
      </trkpt>
      <trkpt lat="43.27606" lon="-0.7442">
        <ele>184.484</ele>
        <time>2021-05-20T14:53:41Z</time>
      </trkpt>
      <trkpt lat="43.27482" lon="-0.74272">
        <ele>185.17</ele>
        <time>2021-05-20T14:54:20Z</time>
      </trkpt>
      <trkpt lat="43.27389" lon="-0.74113">
        <ele>186.442</ele>
        <time>2021-05-20T14:55:05Z</time>
      </trkpt>
      <trkpt lat="43.27359" lon="-0.74144">
        <ele>188.851</ele>
        <time>2021-05-20T14:55:21Z</time>
      </trkpt>
      <trkpt lat="43.2734" lon="-0.74123">
        <ele>189.168</ele>
        <time>2021-05-20T14:55:40Z</time>
      </trkpt>
      <trkpt lat="43.27323" lon="-0.74127">
        <ele>185.916</ele>
        <time>2021-05-20T14:58:56Z</time>
      </trkpt>
      <trkpt lat="43.27324" lon="-0.74105">
        <ele>178.536</ele>
        <time>2021-05-20T15:00:53Z</time>
      </trkpt>
      <trkpt lat="43.26213" lon="-0.72867">
        <ele>195.937</ele>
        <time>2021-05-20T15:06:37Z</time>
      </trkpt>
      <trkpt lat="43.26225" lon="-0.72776">
        <ele>192.981</ele>
        <time>2021-05-20T15:06:54Z</time>
      </trkpt>
      <trkpt lat="43.26149" lon="-0.72701">
        <ele>182.561</ele>
        <time>2021-05-20T15:07:20Z</time>
      </trkpt>
      <trkpt lat="43.26124" lon="-0.72702">
        <ele>179.617</ele>
        <time>2021-05-20T15:07:31Z</time>
      </trkpt>
      <trkpt lat="43.26096" lon="-0.72724">
        <ele>179.308</ele>
        <time>2021-05-20T15:07:41Z</time>
      </trkpt>
      <trkpt lat="43.2605" lon="-0.72705">
        <ele>179.315</ele>
        <time>2021-05-20T15:08:04Z</time>
      </trkpt>
      <trkpt lat="43.2613" lon="-0.72756">
        <ele>193.931</ele>
        <time>2021-05-20T15:09:18Z</time>
      </trkpt>
      <trkpt lat="43.26165" lon="-0.72719">
        <ele>193.513</ele>
        <time>2021-05-20T15:09:35Z</time>
      </trkpt>
      <trkpt lat="43.26225" lon="-0.72788">
        <ele>193.582</ele>
        <time>2021-05-20T15:09:55Z</time>
      </trkpt>
      <trkpt lat="43.26006" lon="-0.73797">
        <ele>196.499</ele>
        <time>2021-05-20T15:12:16Z</time>
      </trkpt>
      <trkpt lat="43.25964" lon="-0.73893">
        <ele>196.667</ele>
        <time>2021-05-20T15:12:31Z</time>
      </trkpt>
      <trkpt lat="43.25949" lon="-0.7389">
        <ele>196.217</ele>
        <time>2021-05-20T15:12:35Z</time>
      </trkpt>
      <trkpt lat="43.25751" lon="-0.73609">
        <ele>192.738</ele>
        <time>2021-05-20T15:13:45Z</time>
      </trkpt>
      <trkpt lat="43.25678" lon="-0.73025">
        <ele>202.583</ele>
        <time>2021-05-20T15:15:26Z</time>
      </trkpt>
      <trkpt lat="43.25588" lon="-0.72825">
        <ele>199.025</ele>
        <time>2021-05-20T15:16:15Z</time>
      </trkpt>
      <trkpt lat="43.25533" lon="-0.72886">
        <ele>202.717</ele>
        <time>2021-05-20T15:16:43Z</time>
      </trkpt>
      <trkpt lat="43.25464" lon="-0.72906">
        <ele>202.308</ele>
        <time>2021-05-20T15:18:13Z</time>
      </trkpt>
      <trkpt lat="43.25411" lon="-0.72969">
        <ele>202.355</ele>
        <time>2021-05-20T15:18:59Z</time>
      </trkpt>
      <trkpt lat="43.25397" lon="-0.73046">
        <ele>196.211</ele>
        <time>2021-05-20T15:19:21Z</time>
      </trkpt>
      <trkpt lat="43.25422" lon="-0.73154">
        <ele>178.583</ele>
        <time>2021-05-20T15:20:02Z</time>
      </trkpt>
      <trkpt lat="43.25374" lon="-0.7319">
        <ele>174.922</ele>
        <time>2021-05-20T15:20:30Z</time>
      </trkpt>
      <trkpt lat="43.25351" lon="-0.73324">
        <ele>196.819</ele>
        <time>2021-05-20T15:21:42Z</time>
      </trkpt>
      <trkpt lat="43.25298" lon="-0.73383">
        <ele>193.517</ele>
        <time>2021-05-20T15:22:11Z</time>
      </trkpt>
      <trkpt lat="43.25083" lon="-0.73768">
        <ele>201.347</ele>
        <time>2021-05-20T15:24:09Z</time>
      </trkpt>
      <trkpt lat="43.249" lon="-0.744">
        <ele>235.058</ele>
        <time>2021-05-20T15:27:41Z</time>
      </trkpt>
      <trkpt lat="43.24722" lon="-0.74561">
        <ele>241.247</ele>
        <time>2021-05-20T15:29:50Z</time>
      </trkpt>
      <trkpt lat="43.24704" lon="-0.74567">
        <ele>243.329</ele>
        <time>2021-05-20T15:29:56Z</time>
      </trkpt>
      <trkpt lat="43.24686" lon="-0.74549">
        <ele>243.921</ele>
        <time>2021-05-20T15:30:07Z</time>
      </trkpt>
      <trkpt lat="43.24657" lon="-0.74573">
        <ele>242.708</ele>
        <time>2021-05-20T15:30:17Z</time>
      </trkpt>
      <trkpt lat="43.24616" lon="-0.74639">
        <ele>240.251</ele>
        <time>2021-05-20T15:30:33Z</time>
      </trkpt>
      <trkpt lat="43.24606" lon="-0.74717">
        <ele>238.937</ele>
        <time>2021-05-20T15:30:49Z</time>
      </trkpt>
      <trkpt lat="43.24547" lon="-0.74752">
        <ele>237.689</ele>
        <time>2021-05-20T15:31:07Z</time>
      </trkpt>
      <trkpt lat="43.24512" lon="-0.74804">
        <ele>235.768</ele>
        <time>2021-05-20T15:31:21Z</time>
      </trkpt>
      <trkpt lat="43.24451" lon="-0.74849">
        <ele>235.115</ele>
        <time>2021-05-20T15:31:46Z</time>
      </trkpt>
      <trkpt lat="43.24413" lon="-0.74835">
        <ele>235.623</ele>
        <time>2021-05-20T15:32:01Z</time>
      </trkpt>
      <trkpt lat="43.24363" lon="-0.74718">
        <ele>258.873</ele>
        <time>2021-05-20T15:32:40Z</time>
      </trkpt>
      <trkpt lat="43.24333" lon="-0.74718">
        <ele>255.914</ele>
        <time>2021-05-20T15:32:49Z</time>
      </trkpt>
      <trkpt lat="43.24306" lon="-0.74699">
        <ele>253.077</ele>
        <time>2021-05-20T15:33:02Z</time>
      </trkpt>
      <trkpt lat="43.24256" lon="-0.74717">
        <ele>251.961</ele>
        <time>2021-05-20T15:33:22Z</time>
      </trkpt>
      <trkpt lat="43.24228" lon="-0.74703">
        <ele>251.127</ele>
        <time>2021-05-20T15:33:31Z</time>
      </trkpt>
      <trkpt lat="43.24171" lon="-0.7475">
        <ele>244.408</ele>
        <time>2021-05-20T15:34:14Z</time>
      </trkpt>
      <trkpt lat="43.24222" lon="-0.74819">
        <ele>261.564</ele>
        <time>2021-05-20T15:34:48Z</time>
      </trkpt>
      <trkpt lat="43.24238" lon="-0.74917">
        <ele>252.28</ele>
        <time>2021-05-20T15:35:19Z</time>
      </trkpt>
      <trkpt lat="43.24215" lon="-0.74964">
        <ele>245.662</ele>
        <time>2021-05-20T15:35:30Z</time>
      </trkpt>
      <trkpt lat="43.24205" lon="-0.75055">
        <ele>238.761</ele>
        <time>2021-05-20T15:35:49Z</time>
      </trkpt>
      <trkpt lat="43.24107" lon="-0.75166">
        <ele>223.068</ele>
        <time>2021-05-20T15:36:38Z</time>
      </trkpt>
      <trkpt lat="43.24061" lon="-0.75277">
        <ele>207.826</ele>
        <time>2021-05-20T15:37:08Z</time>
      </trkpt>
      <trkpt lat="43.24087" lon="-0.75346">
        <ele>190.836</ele>
        <time>2021-05-20T15:37:29Z</time>
      </trkpt>
      <trkpt lat="43.24126" lon="-0.7535">
        <ele>179.927</ele>
        <time>2021-05-20T15:37:40Z</time>
      </trkpt>
      <trkpt lat="43.2411" lon="-0.75376">
        <ele>176.883</ele>
        <time>2021-05-20T15:37:50Z</time>
      </trkpt>
      <trkpt lat="43.24035" lon="-0.75401">
        <ele>176.925</ele>
        <time>2021-05-20T15:38:27Z</time>
      </trkpt>
      <trkpt lat="43.24023" lon="-0.75518">
        <ele>177.717</ele>
        <time>2021-05-20T15:42:03Z</time>
      </trkpt>
      <trkpt lat="43.24118" lon="-0.75557">
        <ele>177.708</ele>
        <time>2021-05-20T15:42:35Z</time>
      </trkpt>
      <trkpt lat="43.24175" lon="-0.75521">
        <ele>172.495</ele>
        <time>2021-05-20T15:43:20Z</time>
      </trkpt>
      <trkpt lat="43.24234" lon="-0.75523">
        <ele>173.631</ele>
        <time>2021-05-20T15:43:45Z</time>
      </trkpt>
      <trkpt lat="43.2427" lon="-0.75565">
        <ele>179.653</ele>
        <time>2021-05-20T15:44:06Z</time>
      </trkpt>
      <trkpt lat="43.24355" lon="-0.75555">
        <ele>179.722</ele>
        <time>2021-05-20T15:44:46Z</time>
      </trkpt>
      <trkpt lat="43.24382" lon="-0.75585">
        <ele>184.419</ele>
        <time>2021-05-20T15:45:07Z</time>
      </trkpt>
      <trkpt lat="43.24443" lon="-0.7556">
        <ele>187.697</ele>
        <time>2021-05-20T15:45:40Z</time>
      </trkpt>
      <trkpt lat="43.24498" lon="-0.75592">
        <ele>191.387</ele>
        <time>2021-05-20T15:46:05Z</time>
      </trkpt>
      <trkpt lat="43.24547" lon="-0.75634">
        <ele>192.788</ele>
        <time>2021-05-20T15:47:02Z</time>
      </trkpt>
      <trkpt lat="43.24551" lon="-0.75701">
        <ele>194.733</ele>
        <time>2021-05-20T15:47:20Z</time>
      </trkpt>
      <trkpt lat="43.24695" lon="-0.75843">
        <ele>200.723</ele>
        <time>2021-05-20T15:49:09Z</time>
      </trkpt>
      <trkpt lat="43.24757" lon="-0.75929">
        <ele>200.315</ele>
        <time>2021-05-20T15:49:40Z</time>
      </trkpt>
      <trkpt lat="43.24777" lon="-0.75987">
        <ele>202.408</ele>
        <time>2021-05-20T15:49:58Z</time>
      </trkpt>
      <trkpt lat="43.24804" lon="-0.76003">
        <ele>200.82</ele>
        <time>2021-05-20T15:50:06Z</time>
      </trkpt>
      <trkpt lat="43.24931" lon="-0.76188">
        <ele>162.136</ele>
        <time>2021-05-20T15:51:26Z</time>
      </trkpt>
      <trkpt lat="43.24941" lon="-0.76182">
        <ele>165.448</ele>
        <time>2021-05-20T15:52:25Z</time>
      </trkpt>
      <trkpt lat="43.24871" lon="-0.76367">
        <ele>191.337</ele>
        <time>2021-05-20T15:53:53Z</time>
      </trkpt>
      <trkpt lat="43.2498" lon="-0.76309">
        <ele>170.634</ele>
        <time>2021-05-20T15:54:40Z</time>
      </trkpt>
      <trkpt lat="43.25005" lon="-0.76334">
        <ele>159.612</ele>
        <time>2021-05-20T15:54:54Z</time>
      </trkpt>
      <trkpt lat="43.25045" lon="-0.76478">
        <ele>167.052</ele>
        <time>2021-05-20T15:55:54Z</time>
      </trkpt>
      <trkpt lat="43.25134" lon="-0.76417">
        <ele>167.413</ele>
        <time>2021-05-20T15:57:04Z</time>
      </trkpt>
      <trkpt lat="43.2514" lon="-0.76683">
        <ele>153.327</ele>
        <time>2021-05-20T15:57:44Z</time>
      </trkpt>
      <trkpt lat="43.25167" lon="-0.7686">
        <ele>154.568</ele>
        <time>2021-05-20T15:58:11Z</time>
      </trkpt>
      <trkpt lat="43.25148" lon="-0.76954">
        <ele>156.214</ele>
        <time>2021-05-20T15:58:27Z</time>
      </trkpt>
      <trkpt lat="43.25102" lon="-0.76948">
        <ele>156.608</ele>
        <time>2021-05-20T15:58:39Z</time>
      </trkpt>
      <trkpt lat="43.25094" lon="-0.7696">
        <ele>155.979</ele>
        <time>2021-05-20T15:58:43Z</time>
      </trkpt>
    </trkseg>
  </trk>
</gpx>